Alexander Mills, North Carolina
Current Conditions -  °F | °C
As of 10:15 AM on Friday 31 Oct 2014 (Local Time) from KFQD Reporting Station
Clear Clear  
Wind Chill: 52°   Ceiling: Unl
Heat Index: 52°   Visibility: 10mi
Dew Point: 38°   Wind: 5mph
Humidity: 59%   Direction: 20°NNE
Pressure: 29.97"   Gusts: NA
Location:  35.27°N, 81.8676°W
Report Text: KFQD 311415Z AUTO 02004KT 10SM CLR 11/03 A2997 RMK AO2 T01090031
Loading
Personal Weather Stations






























Interactive Weather Map New forecast layout! Learn more

10-Day Weather Forecast

Advertisements
Track Severe Weather on mobile